Terminal Aerodrome Forecast
Issued by NWS Knoxville/Tri Cities, TN

Home | Current Version | Previous Version | Text Only | Print | Product List | Glossary On
Versions: 1 2 3 4 5 6 7 8 9 10 11 12 13 14 15 16 17 18 19 20 21 22 23 24 25 26 27 28 29 30 31 32 33 34
516
FTUS44 KMRX 291722
TAFCHA
TAF
KCHA 291722Z 2918/3018 22009KT P6SM BKN040
     FM291900 23010KT P6SM VCSH BKN040
     FM300200 20004KT P6SM BKN040
     FM300800 20004KT P6SM BKN025
      TEMPO 3009/3013 5SM BR BKN015
     FM301600 23007KT P6SM BKN035=

USA.gov is the U.S. government's official web portal to all federal, state and local government web resources and services.